Quincy, WA

6:03 PM PDT on April 01, 2015 (GMT -0700)
NWS Spotter #62 | | Change Station
CLOSE
Current Station
Personal Weather Station
Location: Quincy, WA
Elevation: 1297 ft
Nearby Weather Stations
Active Advisory: Freeze Warning Active Notice: Record Report

Elev 1297 ft 47.23 °N, 119.86 °W | Updated 29 seconds ago

Partly Cloudy
Partly Cloudy
57.0 °F
Feels Like 57.0 °F
N
4.0
Wind Variable Wind from West
Gusts 4.9 mph

Today
High -- | Low -- °F
--% Chance of Precip.
Yesterday
High -- | Low -- °F
Precip. -- in
6:38 AM 7:28 PM
Waxing Gibbous, 95% visible
Pressure 30.08 in
Visibility 10.0 miles
Clouds Mostly Cloudy 9500 ft
Dew Point 21 °F
Humidity 24%
Rainfall 0.00 in
Snow Depth Not available.
UV 1.0 out of 12
Pollen 10.20 out of 12
Air Quality Not available.
Flu Activity Not available.
METAR KEPH 020053Z AUTO 31013G20KT 10SM BKN095 14/M08 A3007 RMK AO2 SLP185 T01441078

More Conditions Fewer Conditions

Pressure 30.08 in
Visibility 10.0 miles
Clouds Mostly Cloudy 9500 ft
Dew Point 21 °F
Humidity 24%
Rainfall 0.00 in
Snow Depth Not available.
UV 1.0 out of 12
Pollen 10.20 out of 12
Air Quality Not available.
Flu Activity Not available.
METAR KEPH 020053Z AUTO 31013G20KT 10SM BKN095 14/M08 A3007 RMK AO2 SLP185 T01441078

More Conditions Fewer Conditions

10-Day Weather Forecast

Almanac

Astronomy

Apr. 01, 2015 Rise Set
Actual Time
Civil Twilight
Nautical Twilight
Astronomical Twilight
Moon
Length of Visible Light
Length of Day
Tomorrow will be .
, % of the Moon is Illuminated

Today's Extremes

State Highs State Lows

Community

WunderPhotos

Upload Photos

1,810,136 photos uploaded!

WunderBlogs® & News

Nearby

Air Quality

  Air Quality AQ Index Pollutant
Not available.

Snow Depth

Station Depth Elevation

Earthquake Activity

City Distance Mag. Time & Date
Minimum magnitude displayed is 2.5.

Coastal Water Temperatures

Place Temperature

Stations

Nearby Weather Stations

Station Location Temp. Windchill Dew Point Humidity Wind Precip. Elev Updated Type
                   
Freeze Warning
Statement as of 11:56 AM PDT on April 01, 2015

... Freeze warning now in effect from 2 am to 9 am PDT Thursday...

* temperatures... 28 to 34.

* Impacts... cold sensitive plants could be damaged by freezing
temperatures. Temperatures could be below freezing up to 5
hours.

Precautionary/preparedness actions...

A freeze warning is issued whenever freezing temperatures are
expected during the growing season.